Time;durP1;ratioP1;P1;durP2;ratioP2;P2;SDS_P1;SDS_P2;PMS_P1;PMS_P2;Temp;Humidity;BMP_temperature;BMP_pressure;BME280_temperature;BME280_humidity;BME280_pressure;Samples;Min_cycle;Max_cycle;Signal;HPM_P1;HPM_P2
2021/09/02 00:01:28;;;;;;;16.42;6.32;;;;;;;24.17;39.47;102392.78;4425508;32;20097;-69
2021/09/02 00:03:54;;;;;;;14.20;5.95;;;;;;;24.23;39.32;102385.03;4423565;32;20390;-69
2021/09/02 00:06:20;;;;;;;16.58;6.78;;;;;;;24.48;38.80;102398.06;4424273;32;20094;-69
2021/09/02 00:08:46;;;;;;;15.13;6.50;;;;;;;24.40;38.92;102394.78;4422908;32;20107;-69
2021/09/02 00:11:11;;;;;;;20.12;7.53;;;;;;;24.56;38.58;102391.41;4426649;32;20143;-69
2021/09/02 00:13:37;;;;;;;16.17;6.72;;;;;;;24.62;38.63;102394.38;4417037;32;20067;-69
2021/09/02 00:16:03;;;;;;;20.67;7.68;;;;;;;24.45;38.81;102399.84;4428917;32;20069;-69
2021/09/02 00:18:30;;;;;;;18.50;7.85;;;;;;;24.56;38.87;102393.50;4425456;32;20062;-69
2021/09/02 00:20:56;;;;;;;20.00;7.25;;;;;;;24.73;38.61;102397.50;4427106;32;20455;-70
2021/09/02 00:23:22;;;;;;;18.77;7.70;;;;;;;24.54;38.71;102387.47;4424991;32;20099;-69
2021/09/02 00:25:48;;;;;;;12.60;7.00;;;;;;;24.37;39.14;102392.91;4427278;32;20037;-69
2021/09/02 00:28:14;;;;;;;18.12;8.20;;;;;;;24.57;38.89;102398.75;4428026;32;20564;-69
2021/09/02 00:30:39;;;;;;;19.33;8.18;;;;;;;24.46;38.70;102389.94;4423750;32;20043;-69
2021/09/02 00:33:05;;;;;;;17.37;7.25;;;;;;;24.69;38.24;102391.94;4423719;32;20336;-69
2021/09/02 00:35:32;;;;;;;24.50;8.15;;;;;;;24.80;38.22;102385.56;4423701;32;20131;-69
2021/09/02 00:37:57;;;;;;;18.17;7.93;;;;;;;24.66;38.63;102397.88;4427694;32;20104;-69
2021/09/02 00:40:24;;;;;;;17.15;8.75;;;;;;;24.82;37.86;102389.53;4428411;32;20268;-69
2021/09/02 00:42:50;;;;;;;21.10;9.05;;;;;;;24.44;38.47;102378.13;4423034;32;20402;-69
2021/09/02 00:45:15;;;;;;;17.33;8.60;;;;;;;24.54;38.38;102381.69;4424399;32;20132;-69
2021/09/02 00:47:41;;;;;;;14.85;8.35;;;;;;;24.93;37.78;102386.84;4425128;32;20142;-69
2021/09/02 00:50:08;;;;;;;19.35;8.63;;;;;;;24.87;37.72;102383.06;4428350;32;20041;-69
2021/09/02 00:52:34;;;;;;;20.80;8.40;;;;;;;24.98;37.84;102385.34;4423969;32;20093;-69
2021/09/02 00:55:03;;;;;;;21.90;9.20;;;;;;;24.91;37.81;102377.91;4423715;32;20041;-69
2021/09/02 00:57:31;;;;;;;24.80;9.85;;;;;;;23.74;39.84;102361.81;4422092;32;20085;-69
2021/09/02 01:00:00;;;;;;;21.98;11.02;;;;;;;24.50;38.61;102376.13;4425717;32;20049;-69
2021/09/02 01:02:27;;;;;;;22.37;10.35;;;;;;;24.80;38.03;102374.84;4423329;32;20046;-69
2021/09/02 01:04:54;;;;;;;23.92;10.23;;;;;;;24.85;37.95;102373.34;4424023;32;20025;-69
2021/09/02 01:07:22;;;;;;;28.92;10.30;;;;;;;24.91;37.97;102372.13;4426315;32;20060;-69
2021/09/02 01:09:48;;;;;;;21.00;9.90;;;;;;;24.27;39.21;102361.84;4426529;32;20053;-68
2021/09/02 01:17:50;;;;;;;22.08;10.77;;;;;;;24.74;38.14;102350.94;3982853;32;15022881;-69
2021/09/02 01:20:19;;;;;;;21.98;11.02;;;;;;;24.72;38.39;102346.94;4433610;32;20328;-69
2021/09/02 01:22:46;;;;;;;23.67;11.30;;;;;;;25.04;37.80;102343.00;4436932;32;20053;-69
2021/09/02 01:25:14;;;;;;;27.75;11.70;;;;;;;24.76;38.20;102341.78;4434730;32;20101;-69
2021/09/02 01:27:41;;;;;;;28.10;11.18;;;;;;;24.64;38.51;102337.91;4435952;32;20021;-69
2021/09/02 01:30:11;;;;;;;26.02;11.70;;;;;;;24.76;38.03;102339.69;4438976;32;20028;-69
2021/09/02 01:32:41;;;;;;;24.73;11.73;;;;;;;24.88;37.94;102335.69;4436700;32;20097;-69
2021/09/02 01:35:10;;;;;;;25.40;11.00;;;;;;;24.88;38.18;102329.94;4434036;32;20460;-69
2021/09/02 01:37:54;;;;;;;33.33;12.63;;;;;;;24.94;38.02;102327.94;4437955;32;20080;-69
2021/09/02 01:40:25;;;;;;;24.27;11.60;;;;;;;25.11;37.70;102320.34;4438316;32;20119;-69
2021/09/02 01:42:51;;;;;;;22.60;10.93;;;;;;;24.96;37.79;102324.53;4433663;32;20053;-69
2021/09/02 01:45:17;;;;;;;24.80;11.40;;;;;;;24.85;37.57;102322.28;4435911;32;20132;-69
2021/09/02 01:47:44;;;;;;;23.62;10.88;;;;;;;24.83;37.96;102318.34;4436499;32;20058;-69
2021/09/02 01:50:13;;;;;;;23.02;10.80;;;;;;;24.70;38.29;102333.03;4437375;32;20185;-69
2021/09/02 01:52:39;;;;;;;20.58;12.15;;;;;;;24.80;38.41;102317.25;4436964;32;20109;-69
2021/09/02 01:55:07;;;;;;;23.87;10.80;;;;;;;24.71;38.56;102314.50;4433717;32;20450;-69
2021/09/02 01:57:33;;;;;;;22.60;11.10;;;;;;;24.67;38.65;102308.13;4436054;32;20462;-69
2021/09/02 01:59:59;;;;;;;25.25;11.95;;;;;;;24.40;38.89;102317.09;4438050;32;20025;-69
2021/09/02 02:02:25;;;;;;;26.73;12.15;;;;;;;24.69;38.52;102322.03;4434866;32;20077;-69
2021/09/02 02:04:50;;;;;;;28.35;12.23;;;;;;;24.56;38.95;102322.31;4435088;32;20084;-69
2021/09/02 02:07:16;;;;;;;26.65;11.57;;;;;;;24.44;38.96;102319.75;4439870;32;20060;-69
2021/09/02 02:09:42;;;;;;;24.02;11.43;;;;;;;24.44;39.10;102317.66;4437222;32;20076;-69
2021/09/02 02:12:08;;;;;;;20.58;10.85;;;;;;;24.52;38.83;102320.94;4433905;32;20071;-69
2021/09/02 02:14:36;;;;;;;21.95;10.27;;;;;;;24.48;38.66;102317.47;4439246;32;20088;-69
2021/09/02 02:17:02;;;;;;;22.80;10.57;;;;;;;24.47;38.97;102318.75;4435227;32;20506;-69
2021/09/02 02:19:27;;;;;;;28.02;12.07;;;;;;;24.64;38.64;102323.50;4435682;32;20041;-69
2021/09/02 02:21:53;;;;;;;24.83;10.35;;;;;;;24.78;38.22;102316.94;4431287;32;20444;-69
2021/09/02 02:24:19;;;;;;;28.98;10.57;;;;;;;24.57;38.53;102309.50;4434745;32;20033;-69
2021/09/02 02:26:45;;;;;;;22.48;10.55;;;;;;;24.50;38.69;102307.03;4434660;32;20222;-69
2021/09/02 02:29:10;;;;;;;21.50;11.88;;;;;;;24.35;38.89;102311.22;4428576;32;20025;-69
2021/09/02 02:31:36;;;;;;;20.05;10.18;;;;;;;24.29;39.02;102311.13;4425190;32;20101;-69
2021/09/02 02:34:02;;;;;;;18.23;9.90;;;;;;;24.43;38.59;102318.97;4428227;32;20041;-69
2021/09/02 02:36:27;;;;;;;24.98;10.77;;;;;;;24.51;38.50;102323.00;4424145;32;20052;-69
2021/09/02 02:38:53;;;;;;;20.27;9.70;;;;;;;24.56;38.33;102315.75;4426008;32;20124;-69
2021/09/02 02:41:19;;;;;;;22.73;10.48;;;;;;;24.55;38.52;102322.81;4423734;32;20133;-69
2021/09/02 02:43:45;;;;;;;21.55;11.15;;;;;;;24.53;38.35;102331.97;4425001;32;20049;-69
2021/09/02 02:46:11;;;;;;;19.50;10.02;;;;;;;24.50;38.64;102329.28;4424537;32;20106;-69
2021/09/02 02:48:36;;;;;;;22.52;10.77;;;;;;;24.46;38.35;102329.50;4428659;32;20108;-69
2021/09/02 02:51:02;;;;;;;22.15;10.88;;;;;;;24.46;38.56;102320.84;4421735;32;20100;-69
2021/09/02 02:53:28;;;;;;;19.85;10.30;;;;;;;24.50;38.33;102321.44;4423416;32;20542;-69
2021/09/02 02:55:54;;;;;;;26.50;11.48;;;;;;;24.79;37.96;102317.75;4427348;32;20026;-69
2021/09/02 02:58:19;;;;;;;22.65;10.90;;;;;;;24.95;37.74;102320.09;4426320;32;20069;-69
2021/09/02 03:00:45;;;;;;;21.52;11.20;;;;;;;24.80;38.12;102323.00;4422923;32;20099;-69
2021/09/02 03:03:11;;;;;;;24.30;10.98;;;;;;;24.66;38.45;102320.94;4425448;32;20098;-69
2021/09/02 03:05:36;;;;;;;17.65;9.25;;;;;;;24.71;38.30;102310.81;4426817;32;20026;-69
2021/09/02 03:08:03;;;;;;;19.27;9.75;;;;;;;24.65;38.16;102310.72;4429414;32;20125;-69
2021/09/02 03:10:29;;;;;;;19.10;10.98;;;;;;;24.96;37.87;102305.19;4425607;32;20093;-69
2021/09/02 03:12:55;;;;;;;22.52;10.70;;;;;;;24.75;38.33;102294.91;4423178;32;20112;-69
2021/09/02 03:15:21;;;;;;;17.45;9.23;;;;;;;24.93;38.15;102308.25;4425147;32;20085;-69
2021/09/02 03:17:47;;;;;;;23.50;10.57;;;;;;;24.93;38.18;102302.50;4423012;32;20037;-69
2021/09/02 03:20:13;;;;;;;23.60;10.70;;;;;;;24.84;38.67;102305.50;4430324;32;20336;-69
2021/09/02 03:22:41;;;;;;;25.65;10.77;;;;;;;24.74;38.77;102290.47;4422382;32;20060;-69
2021/09/02 03:25:08;;;;;;;23.92;11.57;;;;;;;24.45;39.33;102290.47;4423617;32;20034;-69
2021/09/02 03:27:35;;;;;;;24.80;11.60;;;;;;;24.52;39.63;102284.31;4423739;32;20061;-69
2021/09/02 03:30:03;;;;;;;24.12;12.35;;;;;;;24.55;39.71;102288.28;4423340;32;20565;-69
2021/09/02 03:32:28;;;;;;;20.55;11.25;;;;;;;24.32;40.39;102287.13;4422453;32;20072;-69
2021/09/02 03:34:54;;;;;;;25.27;12.10;;;;;;;24.68;39.84;102286.69;4424311;32;20418;-69
2021/09/02 03:37:19;;;;;;;27.40;11.38;;;;;;;23.76;41.90;102286.56;4426152;32;20041;-69
2021/09/02 03:39:45;;;;;;;28.33;12.43;;;;;;;24.24;40.93;102288.78;4426273;32;20148;-69
2021/09/02 03:42:11;;;;;;;21.98;11.35;;;;;;;24.21;41.09;102283.25;4419420;32;20444;-69
2021/09/02 03:44:37;;;;;;;23.20;11.65;;;;;;;23.99;41.68;102288.63;4422201;32;20050;-69
2021/09/02 03:47:03;;;;;;;23.38;11.40;;;;;;;24.08;42.10;102289.28;4425394;32;20037;-69
2021/09/02 03:49:30;;;;;;;21.27;10.80;;;;;;;24.28;41.38;102283.66;4425755;32;20124;-69
2021/09/02 03:51:55;;;;;;;22.65;10.07;;;;;;;24.26;41.33;102271.03;4423174;32;20042;-69
2021/09/02 03:54:21;;;;;;;21.05;10.00;;;;;;;24.36;40.95;102275.41;4426622;32;20318;-69
2021/09/02 03:56:46;;;;;;;22.08;10.00;;;;;;;24.47;40.95;102276.38;4423958;32;20097;-69
2021/09/02 03:59:12;;;;;;;27.35;10.82;;;;;;;24.39;41.13;102280.94;4421511;32;20103;-69
2021/09/02 04:01:38;;;;;;;17.42;8.25;;;;;;;24.47;41.11;102270.63;4417165;32;20068;-69
2021/09/02 04:04:03;;;;;;;18.02;8.82;;;;;;;24.28;41.46;102268.47;4426147;32;20090;-69
2021/09/02 04:06:29;;;;;;;20.08;9.27;;;;;;;24.36;41.26;102276.19;4424945;32;20069;-69
2021/09/02 04:08:55;;;;;;;19.80;9.35;;;;;;;24.41;41.37;102272.62;4426031;32;20080;-69
2021/09/02 04:11:20;;;;;;;16.23;8.77;;;;;;;24.43;41.50;102275.81;4422167;32;20099;-69
2021/09/02 04:13:46;;;;;;;20.58;9.43;;;;;;;24.02;42.73;102273.25;4420430;32;20081;-69
2021/09/02 04:16:11;;;;;;;19.73;9.20;;;;;;;24.13;43.09;102282.88;4422975;32;20224;-69
2021/09/02 04:18:38;;;;;;;21.85;9.20;;;;;;;24.01;43.32;102283.16;4423068;32;20434;-69
2021/09/02 04:21:04;;;;;;;17.50;8.52;;;;;;;23.90;43.33;102280.06;4420938;32;20046;-69
2021/09/02 04:23:32;;;;;;;23.95;9.90;;;;;;;24.07;43.15;102287.72;4422773;32;20521;-69
2021/09/02 04:25:58;;;;;;;20.88;9.38;;;;;;;24.11;43.12;102293.28;4426532;32;20378;-69
2021/09/02 04:28:25;;;;;;;18.42;9.07;;;;;;;24.13;43.01;102291.50;4425355;32;20528;-68
2021/09/02 04:30:50;;;;;;;17.15;9.32;;;;;;;24.06;42.99;102288.22;4424325;32;20042;-68
2021/09/02 04:33:17;;;;;;;24.40;10.15;;;;;;;24.35;42.72;102283.25;4421548;32;20410;-68
2021/09/02 04:35:42;;;;;;;19.48;9.00;;;;;;;24.37;43.09;102283.56;4426672;32;20411;-68
2021/09/02 04:38:08;;;;;;;21.90;8.93;;;;;;;24.18;43.51;102284.25;4422887;32;20022;-68
2021/09/02 04:40:34;;;;;;;23.17;9.48;;;;;;;24.10;43.77;102280.19;4422214;32;20102;-68
2021/09/02 04:43:00;;;;;;;18.80;8.85;;;;;;;23.97;44.24;102280.47;4423007;32;20050;-68
2021/09/02 04:45:26;;;;;;;20.90;10.00;;;;;;;23.93;44.63;102276.19;4418701;32;20041;-68
2021/09/02 04:47:52;;;;;;;21.77;9.13;;;;;;;24.09;44.23;102279.41;4420611;32;20140;-68
2021/09/02 04:50:19;;;;;;;18.42;9.02;;;;;;;24.04;44.27;102282.97;4424384;32;20089;-68
2021/09/02 04:52:45;;;;;;;14.98;8.63;;;;;;;24.24;43.96;102279.38;4422402;32;20494;-68
2021/09/02 04:55:11;;;;;;;18.60;8.70;;;;;;;24.12;43.79;102277.59;4422027;32;20051;-68
2021/09/02 04:57:37;;;;;;;17.33;8.40;;;;;;;24.15;43.87;102268.78;4421017;32;20147;-68
2021/09/02 05:00:05;;;;;;;17.92;8.30;;;;;;;24.29;43.32;102273.72;4421634;32;20442;-68
2021/09/02 05:02:31;;;;;;;19.80;8.90;;;;;;;24.34;43.39;102270.16;4421729;32;20079;-68
2021/09/02 05:04:57;;;;;;;17.40;8.98;;;;;;;24.27;43.29;102278.41;4424582;32;20438;-68
2021/09/02 05:07:23;;;;;;;21.08;8.45;;;;;;;24.08;43.63;102274.16;4423540;32;20030;-68
2021/09/02 05:09:49;;;;;;;17.15;9.07;;;;;;;24.11;43.19;102273.91;4419905;32;20430;-68
2021/09/02 05:12:16;;;;;;;24.67;9.05;;;;;;;24.07;43.13;102273.34;4422446;32;20107;-68
2021/09/02 05:14:42;;;;;;;16.50;7.95;;;;;;;24.11;43.19;102270.28;4420955;32;20115;-68
2021/09/02 05:17:09;;;;;;;18.95;8.02;;;;;;;24.21;42.84;102272.53;4423766;32;20038;-68
2021/09/02 05:19:35;;;;;;;17.90;8.50;;;;;;;24.19;42.50;102277.19;4423522;32;20054;-68
2021/09/02 05:22:01;;;;;;;19.02;9.68;;;;;;;24.10;42.45;102275.22;4423849;32;20540;-68
2021/09/02 05:24:27;;;;;;;17.62;7.97;;;;;;;24.41;42.07;102278.38;4422529;32;20069;-68
2021/09/02 05:26:52;;;;;;;18.92;8.02;;;;;;;24.44;42.04;102274.50;4422229;32;20057;-68
2021/09/02 05:29:18;;;;;;;21.12;8.23;;;;;;;24.46;41.93;102274.00;4422109;32;20129;-68
2021/09/02 05:31:44;;;;;;;22.30;8.13;;;;;;;24.45;41.63;102284.72;4420685;32;20046;-68
2021/09/02 05:34:10;;;;;;;20.30;8.65;;;;;;;24.51;41.45;102279.84;4418888;32;20042;-68
2021/09/02 05:36:36;;;;;;;21.42;7.55;;;;;;;24.47;41.52;102270.63;4417950;32;20143;-68
2021/09/02 05:39:03;;;;;;;18.45;7.25;;;;;;;24.43;41.36;102272.91;4423093;32;20077;-68
2021/09/02 05:41:29;;;;;;;15.30;7.03;;;;;;;24.61;40.92;102266.91;4421224;32;20057;-68
2021/09/02 05:43:55;;;;;;;14.60;7.28;;;;;;;24.35;41.07;102268.06;4421398;32;20093;-68
2021/09/02 05:46:20;;;;;;;16.12;7.15;;;;;;;24.47;40.69;102267.75;4422365;32;20453;-68
2021/09/02 05:48:46;;;;;;;18.20;7.25;;;;;;;24.46;40.83;102260.41;4417675;32;20092;-68
2021/09/02 05:51:12;;;;;;;14.55;7.18;;;;;;;24.57;40.78;102262.66;4419045;32;20148;-68
2021/09/02 05:53:38;;;;;;;18.50;7.95;;;;;;;24.40;40.89;102265.28;4420167;32;20029;-68
2021/09/02 05:56:05;;;;;;;17.77;7.50;;;;;;;24.40;40.88;102261.59;4423950;32;20076;-68
2021/09/02 05:58:31;;;;;;;15.88;7.07;;;;;;;24.52;40.89;102257.63;4420381;32;20042;-68
2021/09/02 06:00:58;;;;;;;21.40;8.02;;;;;;;24.63;40.64;102263.53;4422272;32;20130;-68
2021/09/02 06:03:24;;;;;;;19.85;7.28;;;;;;;24.66;40.27;102266.25;4422613;32;20204;-68
2021/09/02 06:05:50;;;;;;;13.77;6.68;;;;;;;24.80;40.18;102276.94;4425006;32;20029;-68
2021/09/02 06:08:16;;;;;;;14.90;6.87;;;;;;;24.99;39.79;102275.38;4423861;32;20042;-68
2021/09/02 06:10:42;;;;;;;16.70;7.18;;;;;;;24.94;39.73;102278.16;4425114;32;20909;-68
2021/09/02 06:13:09;;;;;;;16.00;6.97;;;;;;;24.95;39.66;102285.53;4425921;32;20068;-69
2021/09/02 06:15:35;;;;;;;15.25;6.97;;;;;;;25.04;39.53;102279.62;4423882;32;20103;-68
2021/09/02 06:18:01;;;;;;;18.45;6.72;;;;;;;24.67;40.04;102284.31;4421843;32;20046;-68
2021/09/02 06:20:28;;;;;;;17.62;7.68;;;;;;;24.89;39.90;102279.69;4425669;32;20093;-68
2021/09/02 06:22:54;;;;;;;19.70;7.50;;;;;;;24.66;40.25;102280.63;4422212;32;20647;-68
2021/09/02 06:25:19;;;;;;;18.70;7.43;;;;;;;24.95;39.76;102285.53;4422276;32;20026;-68
2021/09/02 06:27:45;;;;;;;16.75;7.50;;;;;;;25.12;39.55;102295.19;4422739;32;20097;-68
2021/09/02 06:30:11;;;;;;;16.45;7.85;;;;;;;25.13;39.42;102291.03;4426449;32;20585;-70
2021/09/02 06:32:38;;;;;;;20.10;7.05;;;;;;;25.13;39.36;102286.03;4421681;32;21109;-68
2021/09/02 06:35:04;;;;;;;18.27;7.18;;;;;;;25.22;39.25;102291.66;4419810;32;20434;-68
2021/09/02 06:37:30;;;;;;;17.87;7.80;;;;;;;25.43;39.04;102285.94;4421418;32;20141;-68
2021/09/02 06:39:56;;;;;;;17.15;7.20;;;;;;;25.43;38.97;102285.94;4419074;32;20403;-68
2021/09/02 06:42:26;;;;;;;18.75;8.05;;;;;;;25.19;39.51;102283.25;4412988;32;20457;-68
2021/09/02 06:44:52;;;;;;;23.77;7.97;;;;;;;25.25;39.23;102284.88;4413890;32;20975;-68
2021/09/02 06:47:17;;;;;;;19.33;8.23;;;;;;;25.40;39.11;102289.81;4415045;32;20041;-68
2021/09/02 06:49:43;;;;;;;17.50;8.05;;;;;;;25.35;39.03;102286.34;4412549;32;20033;-68
2021/09/02 06:52:09;;;;;;;19.75;8.35;;;;;;;25.35;39.10;102285.56;4410368;32;20168;-68
2021/09/02 06:54:34;;;;;;;19.42;8.30;;;;;;;25.16;39.64;102293.66;4416021;32;20046;-68
2021/09/02 06:57:00;;;;;;;21.15;9.00;;;;;;;25.15;39.70;102292.09;4414699;32;20050;-68
2021/09/02 06:59:26;;;;;;;19.12;8.48;;;;;;;25.20;39.91;102282.75;4411629;32;20065;-67
2021/09/02 07:01:51;;;;;;;22.37;8.95;;;;;;;25.39;39.24;102289.03;4412888;32;20511;-70
2021/09/02 07:04:17;;;;;;;21.20;8.57;;;;;;;25.37;39.30;102285.06;4415453;32;20514;-69
2021/09/02 07:06:43;;;;;;;15.50;7.43;;;;;;;25.25;39.37;102290.66;4410557;32;20057;-69
2021/09/02 07:09:09;;;;;;;20.12;8.65;;;;;;;25.51;39.00;102284.97;4420783;32;20445;-70
2021/09/02 07:11:35;;;;;;;19.15;7.85;;;;;;;25.58;38.62;102290.31;4418116;32;20061;-70
2021/09/02 07:14:03;;;;;;;17.52;7.40;;;;;;;25.73;38.23;102279.47;4422031;32;20099;-70
2021/09/02 07:16:30;;;;;;;18.05;7.95;;;;;;;25.61;38.48;102285.62;4416281;32;20054;-68
2021/09/02 07:18:56;;;;;;;18.67;8.32;;;;;;;25.12;39.41;102287.34;4418229;32;20071;-69
2021/09/02 07:21:22;;;;;;;19.80;7.80;;;;;;;25.74;38.51;102286.81;4418811;32;20148;-70
2021/09/02 07:23:47;;;;;;;20.92;7.28;;;;;;;25.77;38.42;102277.16;4418954;32;20067;-69
2021/09/02 07:26:14;;;;;;;19.98;7.60;;;;;;;25.66;38.64;102284.88;4414218;32;20046;-70
2021/09/02 07:28:40;;;;;;;17.98;7.60;;;;;;;25.59;38.50;102282.44;4416384;32;20127;-69
2021/09/02 07:31:06;;;;;;;21.83;8.30;;;;;;;25.02;39.45;102276.44;4415446;32;20106;-70
2021/09/02 07:33:32;;;;;;;19.37;7.90;;;;;;;25.60;38.71;102272.50;4415195;32;20109;-70
2021/09/02 07:35:58;;;;;;;15.50;6.68;;;;;;;25.77;38.28;102282.91;4421004;32;20061;-70
2021/09/02 07:38:24;;;;;;;18.85;8.13;;;;;;;25.84;38.10;102284.56;4420090;32;20068;-70
2021/09/02 07:40:50;;;;;;;18.05;8.30;;;;;;;25.87;38.15;102286.44;4418716;32;20126;-70
2021/09/02 07:43:16;;;;;;;15.35;7.12;;;;;;;25.81;38.13;102279.81;4419041;32;20089;-70
2021/09/02 07:45:42;;;;;;;21.52;8.05;;;;;;;25.71;38.22;102287.81;4418273;32;20067;-70
2021/09/02 07:48:08;;;;;;;19.65;7.95;;;;;;;26.07;37.59;102272.75;4420971;32;20085;-70
2021/09/02 07:50:34;;;;;;;21.52;8.20;;;;;;;26.10;37.55;102286.19;4417233;32;20437;-70
2021/09/02 07:52:59;;;;;;;25.98;8.85;;;;;;;26.12;37.27;102279.91;4417163;32;20438;-70
2021/09/02 07:55:25;;;;;;;18.87;8.32;;;;;;;26.14;37.29;102280.97;4417463;32;20137;-69
2021/09/02 07:57:51;;;;;;;20.98;8.00;;;;;;;25.90;37.79;102271.78;4419054;32;20203;-69
2021/09/02 08:00:18;;;;;;;25.08;8.60;;;;;;;25.38;38.59;102276.69;4415828;32;20125;-69
2021/09/02 08:02:45;;;;;;;26.90;8.63;;;;;;;26.07;37.42;102286.38;4418964;32;20464;-69
2021/09/02 08:05:12;;;;;;;21.60;7.70;;;;;;;26.42;37.04;102292.75;4418388;32;20815;-69
2021/09/02 08:10:23;;;;;;;23.40;8.65;;;;;;;26.64;36.55;102293.78;3986603;32;15024455;-67
2021/09/02 08:12:50;;;;;;;26.60;8.88;;;;;;;26.71;36.63;102283.81;4443286;32;20117;-69
2021/09/02 08:15:17;;;;;;;17.37;8.43;;;;;;;26.39;37.25;102288.00;4444619;32;20181;-69
2021/09/02 08:17:44;;;;;;;26.25;9.23;;;;;;;26.41;37.38;102283.31;4444389;32;21574;-69
2021/09/02 08:20:10;;;;;;;25.45;8.90;;;;;;;26.58;37.02;102295.00;4443333;32;20137;-69
2021/09/02 08:22:39;;;;;;;25.23;8.93;;;;;;;26.24;37.64;102285.28;4444591;32;20198;-69
2021/09/02 08:25:07;;;;;;;22.42;9.20;;;;;;;26.31;37.41;102289.78;4445133;32;20033;-69
2021/09/02 08:27:32;;;;;;;19.62;7.65;;;;;;;26.57;37.30;102285.53;4443358;32;20056;-70
2021/09/02 08:29:59;;;;;;;16.30;8.02;;;;;;;26.61;37.02;102289.00;4440603;32;20069;-70
2021/09/02 08:32:24;;;;;;;18.45;8.13;;;;;;;26.74;36.70;102285.69;4430775;32;20149;-70
2021/09/02 08:34:50;;;;;;;23.60;7.20;;;;;;;26.13;37.59;102279.38;4430948;32;20076;-70
2021/09/02 08:37:16;;;;;;;24.55;7.90;;;;;;;26.43;36.84;102280.69;4444508;32;20077;-71
2021/09/02 08:39:42;;;;;;;20.12;8.02;;;;;;;26.81;36.13;102274.44;4444101;32;20366;-70
2021/09/02 08:42:08;;;;;;;24.87;8.65;;;;;;;26.86;36.07;102272.88;4444002;32;20100;-69
2021/09/02 08:44:35;;;;;;;20.00;8.48;;;;;;;26.80;36.60;102269.19;4443811;32;20496;-69
2021/09/02 08:47:03;;;;;;;21.35;8.65;;;;;;;26.77;36.61;102281.75;4444613;32;20060;-69
2021/09/02 08:49:30;;;;;;;16.27;8.57;;;;;;;26.81;36.53;102267.84;4444408;32;20418;-69
2021/09/02 08:51:57;;;;;;;24.70;7.93;;;;;;;27.14;36.13;102273.84;4444680;32;20103;-69
2021/09/02 08:54:23;;;;;;;16.55;7.22;;;;;;;26.64;36.59;102275.62;4441985;32;20096;-69
2021/09/02 08:56:49;;;;;;;20.83;7.60;;;;;;;27.16;35.72;102268.34;4445874;32;20386;-68
2021/09/02 08:59:15;;;;;;;17.87;6.53;;;;;;;27.25;35.16;102271.03;4441651;32;20105;-68
2021/09/02 09:01:46;;;;;;;21.00;5.90;;;;;;;27.37;34.71;102268.97;4444136;32;20091;-68
2021/09/02 09:04:14;;;;;;;17.67;6.40;;;;;;;27.38;34.42;102268.47;4442950;32;20076;-68
2021/09/02 09:06:41;;;;;;;16.90;6.45;;;;;;;27.71;34.02;102271.47;4443034;32;20117;-68
2021/09/02 09:09:16;;;;;;;14.27;7.32;;;;;;;27.64;33.86;102276.97;4442199;32;20116;-68
2021/09/02 09:11:47;;;;;;;18.20;6.80;;;;;;;27.82;33.88;102274.37;4432154;32;20836;-68
2021/09/02 09:14:28;;;;;;;23.67;7.10;;;;;;;27.81;34.15;102272.81;4444159;32;20370;-69
2021/09/02 09:16:58;;;;;;;18.35;6.75;;;;;;;28.27;33.47;102278.94;4443158;32;20090;-69
2021/09/02 09:19:49;;;;;;;17.27;6.65;;;;;;;28.26;33.21;102273.69;4442236;32;20111;-69
2021/09/02 09:22:18;;;;;;;16.52;6.35;;;;;;;27.68;34.28;102274.59;4433093;32;20121;-68
2021/09/02 09:32:43;;;;;;;21.33;6.82;;;;;;;28.67;33.35;102280.53;3984037;32;15026199;-69
2021/09/02 09:35:11;;;;;;;19.87;6.62;;;;;;;28.67;33.35;102280.53;4450421;32;20123;-69
2021/09/02 09:37:40;;;;;;;14.00;6.28;;;;;;;28.03;33.92;102266.28;4447491;32;20065;-68
2021/09/02 09:53:48;;;;;;;15.63;6.47;;;;;;;28.92;33.00;102270.72;3994094;31;15017176;-68
2021/09/02 09:56:17;;;;;;;22.10;6.10;;;;;;;28.92;33.00;102270.72;4448725;32;20044;-68
2021/09/02 09:58:45;;;;;;;14.18;6.70;;;;;;;28.51;33.19;102264.75;4446606;32;20369;-69
2021/09/02 10:01:12;;;;;;;21.60;6.80;;;;;;;28.67;33.15;102261.03;4445512;32;20037;-68
2021/09/02 10:03:40;;;;;;;15.57;6.37;;;;;;;28.12;33.62;102258.13;4447469;32;20099;-68
2021/09/02 10:06:09;;;;;;;12.35;5.85;;;;;;;28.79;32.79;102265.50;4445870;32;20079;-68
2021/09/02 10:08:38;;;;;;;14.63;5.90;;;;;;;28.73;32.63;102267.63;4445464;32;20029;-68
2021/09/02 10:11:06;;;;;;;21.02;5.78;;;;;;;28.99;32.05;102265.16;4445356;32;20064;-70
2021/09/02 10:13:33;;;;;;;15.52;6.18;;;;;;;29.33;31.89;102268.00;4445591;32;20045;-69
2021/09/02 10:15:59;;;;;;;14.25;6.03;;;;;;;29.14;32.07;102264.13;4447790;32;20134;-68
2021/09/02 10:18:28;;;;;;;12.55;6.12;;;;;;;29.16;32.01;102244.06;4446690;32;20098;-68
2021/09/02 10:20:54;;;;;;;17.52;6.03;;;;;;;29.28;31.74;102257.19;4447397;32;20472;-68
2021/09/02 10:23:24;;;;;;;16.30;5.60;;;;;;;29.20;31.92;102244.59;4446019;32;20469;-68
2021/09/02 10:25:50;;;;;;;18.40;6.28;;;;;;;29.18;32.08;102244.31;4449420;32;20132;-68
2021/09/02 10:28:30;;;;;;;19.67;6.37;;;;;;;29.05;32.08;102247.00;4447990;32;20067;-68
2021/09/02 10:31:01;;;;;;;15.40;6.53;;;;;;;29.13;32.00;102257.50;4445293;32;20093;-68
2021/09/02 10:38:49;;;;;;;13.40;5.82;;;;;;;29.65;31.72;102254.66;3980941;32;15023973;-69
2021/09/02 10:41:36;;;;;;;15.25;6.45;;;;;;;29.65;31.72;102254.66;4432750;32;20090;-69
2021/09/02 10:44:03;;;;;;;21.35;7.22;;;;;;;29.60;31.53;102253.34;4434253;32;20088;-69
2021/09/02 10:57:10;;;;;;;16.03;7.13;;;;;;;29.76;31.09;102252.47;3989193;31;15017448;-68
2021/09/02 11:05:01;;;;;;;16.10;7.18;;;;;;;30.86;30.05;102252.91;3960740;32;15022454;-69
2021/09/02 11:07:46;;;;;;;;;;;;;;;30.86;30.05;102252.91;4412374;32;20080;-68
2021/09/02 11:10:17;;;;;;;15.70;6.90;;;;;;;30.56;29.80;102244.22;4411282;32;20018;-68
2021/09/02 11:12:44;;;;;;;17.00;7.28;;;;;;;30.38;30.34;102239.87;4406086;32;20085;-69
2021/09/02 11:15:10;;;;;;;17.58;6.57;;;;;;;30.62;29.73;102239.13;4409226;32;20038;-70
2021/09/02 11:17:37;;;;;;;17.25;6.62;;;;;;;30.19;30.22;102238.22;4405563;32;20034;-70
2021/09/02 11:20:18;;;;;;;17.52;7.40;;;;;;;30.71;29.56;102242.44;4409709;32;20500;-69
2021/09/02 11:22:47;;;;;;;16.70;7.18;;;;;;;31.04;29.20;102241.31;4404418;32;20122;-69
2021/09/02 11:25:14;;;;;;;16.12;6.97;;;;;;;30.93;29.39;102246.47;4407826;32;20470;-69
2021/09/02 11:27:40;;;;;;;17.27;7.05;;;;;;;30.03;30.54;102245.69;4405231;32;20494;-69
2021/09/02 11:30:25;;;;;;;18.95;7.65;;;;;;;30.70;29.89;102237.19;4406900;32;20093;-70
2021/09/02 11:32:54;;;;;;;17.85;7.53;;;;;;;30.67;29.61;102233.25;4407530;32;20102;-68
2021/09/02 11:35:20;;;;;;;12.65;7.32;;;;;;;31.15;29.31;102228.75;4408260;32;20049;-69
2021/09/02 11:37:46;;;;;;;17.25;7.47;;;;;;;31.16;29.22;102234.03;4410328;32;20104;-68
2021/09/02 11:40:33;;;;;;;23.73;7.97;;;;;;;31.20;29.04;102225.78;4407561;32;20137;-69
2021/09/02 11:43:01;;;;;;;17.87;7.45;;;;;;;31.68;28.57;102231.47;4405983;32;20041;-68
2021/09/02 11:45:30;;;;;;;23.08;8.07;;;;;;;31.78;28.52;102240.63;4408894;32;20739;-69
2021/09/02 11:48:03;;;;;;;18.25;8.13;;;;;;;32.30;27.76;102229.16;4408179;32;20478;-69
2021/09/02 11:50:29;;;;;;;19.87;8.02;;;;;;;32.12;28.03;102230.03;4405657;32;20084;-69
2021/09/02 11:52:56;;;;;;;20.85;7.22;;;;;;;32.38;27.73;102227.22;4408052;32;20493;-69
2021/09/02 11:55:29;;;;;;;18.37;7.43;;;;;;;32.76;27.02;102233.66;4405533;32;20736;-69
2021/09/02 11:57:57;;;;;;;18.58;7.72;;;;;;;32.92;26.93;102233.37;4406670;32;20466;-69
2021/09/02 12:00:23;;;;;;;16.00;7.20;;;;;;;33.02;26.82;102230.78;4405311;32;20060;-69
2021/09/02 12:02:53;;;;;;;19.37;7.75;;;;;;;32.93;26.91;102226.19;4404501;32;20419;-71
2021/09/02 12:05:21;;;;;;;18.08;7.35;;;;;;;32.98;26.92;102222.38;4406493;32;20247;-71